logo
Search for airport 
image banner adimage banner adimage banner ad
image banner ad

CFH4 - Fox Harbour

Located in , Canada

ICAO - CFH4, IATA - YFX

Data provided by Airmate  

General information

Coordinates: N45°52'12" W63°27'40"
Elevation is 62 feet MSL.
Magnetic variation is -17.6689° East
View others Airports in Nova Scotia

Operational data

Special qualification required
Current time UTC:
Current local time:
Weather at : CYYG - Charlottetown ( 54 km )
METAR: CYYG 230400Z VRB02KT 15SM SKC M03/M06 A3011 RMK SLP200
TAF: TAF CYYG 222341Z 2300/2312 33008KT P6SM SKC BECMG 2306/2308 VRB03KT BECMG 2310/2312 20008KT RMK NXT FCST BY 230600Z
View NOTAMs / SUP AIP / TFR affecting this airport [VIEW]
Communications frequencies: [VIEW]

Runways:

RWY identifierQFULength (ft)Width (ft)SurfaceLDA (ft)
15125°488575ASPH4885
33305°488575ASPH4805

Airport contact information

Address: Canada

Satellite view of CFH4